sensor_id;sensor_type;location;lat;lon;timestamp;P1;durP1;ratioP1;P2;durP2;ratioP2
14876;SDS011;69691;48.172;17.070;2023-05-14T00:01:40;15.57;;;12.23;;
14876;SDS011;69691;48.172;17.070;2023-05-14T00:04:06;20.70;;;11.70;;
14876;SDS011;69691;48.172;17.070;2023-05-14T00:06:31;16.73;;;12.27;;
14876;SDS011;69691;48.172;17.070;2023-05-14T00:08:57;16.05;;;11.02;;
14876;SDS011;69691;48.172;17.070;2023-05-14T00:11:23;16.88;;;12.32;;
14876;SDS011;69691;48.172;17.070;2023-05-14T00:13:49;14.85;;;11.43;;
14876;SDS011;69691;48.172;17.070;2023-05-14T00:16:15;12.75;;;11.38;;
14876;SDS011;69691;48.172;17.070;2023-05-14T00:18:41;13.13;;;10.48;;
14876;SDS011;69691;48.172;17.070;2023-05-14T00:21:06;11.90;;;10.80;;
14876;SDS011;69691;48.172;17.070;2023-05-14T00:23:32;16.75;;;11.52;;
14876;SDS011;69691;48.172;17.070;2023-05-14T00:25:58;12.35;;;9.95;;
14876;SDS011;69691;48.172;17.070;2023-05-14T00:28:24;12.30;;;10.73;;
14876;SDS011;69691;48.172;17.070;2023-05-14T00:30:50;15.80;;;11.02;;
14876;SDS011;69691;48.172;17.070;2023-05-14T00:33:16;13.40;;;10.48;;
14876;SDS011;69691;48.172;17.070;2023-05-14T00:35:42;12.43;;;11.23;;
14876;SDS011;69691;48.172;17.070;2023-05-14T00:38:08;13.73;;;11.40;;
14876;SDS011;69691;48.172;17.070;2023-05-14T00:40:34;15.10;;;10.95;;
14876;SDS011;69691;48.172;17.070;2023-05-14T00:43:00;15.63;;;10.50;;
14876;SDS011;69691;48.172;17.070;2023-05-14T00:45:26;17.38;;;10.68;;
14876;SDS011;69691;48.172;17.070;2023-05-14T00:47:52;12.55;;;9.63;;
14876;SDS011;69691;48.172;17.070;2023-05-14T00:50:18;12.55;;;10.68;;
14876;SDS011;69691;48.172;17.070;2023-05-14T00:52:45;14.60;;;9.63;;
14876;SDS011;69691;48.172;17.070;2023-05-14T00:55:12;12.52;;;11.32;;
14876;SDS011;69691;48.172;17.070;2023-05-14T00:57:40;12.50;;;11.02;;
14876;SDS011;69691;48.172;17.070;2023-05-14T01:00:06;12.02;;;10.55;;
14876;SDS011;69691;48.172;17.070;2023-05-14T01:02:33;12.48;;;10.20;;
14876;SDS011;69691;48.172;17.070;2023-05-14T01:04:59;14.52;;;9.80;;
14876;SDS011;69691;48.172;17.070;2023-05-14T01:07:29;15.02;;;10.35;;
14876;SDS011;69691;48.172;17.070;2023-05-14T01:10:18;13.32;;;10.02;;
14876;SDS011;69691;48.172;17.070;2023-05-14T01:15:53;11.93;;;10.73;;
14876;SDS011;69691;48.172;17.070;2023-05-14T01:18:21;11.82;;;10.38;;
14876;SDS011;69691;48.172;17.070;2023-05-14T01:20:49;13.43;;;10.05;;
14876;SDS011;69691;48.172;17.070;2023-05-14T01:23:16;11.95;;;10.73;;
14876;SDS011;69691;48.172;17.070;2023-05-14T01:25:42;11.07;;;9.98;;
14876;SDS011;69691;48.172;17.070;2023-05-14T01:28:15;12.15;;;9.98;;
14876;SDS011;69691;48.172;17.070;2023-05-14T01:33:18;11.43;;;10.23;;
14876;SDS011;69691;48.172;17.070;2023-05-14T01:35:49;17.38;;;10.82;;
14876;SDS011;69691;48.172;17.070;2023-05-14T01:38:17;18.42;;;11.32;;
14876;SDS011;69691;48.172;17.070;2023-05-14T01:40:46;15.15;;;10.38;;
14876;SDS011;69691;48.172;17.070;2023-05-14T01:43:14;11.90;;;10.63;;
14876;SDS011;69691;48.172;17.070;2023-05-14T01:45:40;12.75;;;10.73;;
14876;SDS011;69691;48.172;17.070;2023-05-14T01:48:07;13.73;;;10.35;;
14876;SDS011;69691;48.172;17.070;2023-05-14T01:50:33;11.73;;;9.25;;
14876;SDS011;69691;48.172;17.070;2023-05-14T01:52:59;11.57;;;9.88;;
14876;SDS011;69691;48.172;17.070;2023-05-14T01:55:26;11.30;;;10.15;;
14876;SDS011;69691;48.172;17.070;2023-05-14T01:57:52;15.68;;;10.77;;
14876;SDS011;69691;48.172;17.070;2023-05-14T02:00:19;11.85;;;10.65;;
14876;SDS011;69691;48.172;17.070;2023-05-14T02:02:49;12.02;;;10.13;;
14876;SDS011;69691;48.172;17.070;2023-05-14T02:05:15;13.63;;;9.85;;
14876;SDS011;69691;48.172;17.070;2023-05-14T02:07:41;13.82;;;10.15;;
14876;SDS011;69691;48.172;17.070;2023-05-14T02:10:07;13.48;;;11.45;;
14876;SDS011;69691;48.172;17.070;2023-05-14T02:12:34;12.68;;;10.48;;
14876;SDS011;69691;48.172;17.070;2023-05-14T02:14:59;13.10;;;10.15;;
14876;SDS011;69691;48.172;17.070;2023-05-14T02:17:26;10.65;;;9.48;;
14876;SDS011;69691;48.172;17.070;2023-05-14T02:19:52;12.80;;;10.80;;
14876;SDS011;69691;48.172;17.070;2023-05-14T02:22:18;11.07;;;9.90;;
14876;SDS011;69691;48.172;17.070;2023-05-14T02:24:44;13.73;;;9.63;;
14876;SDS011;69691;48.172;17.070;2023-05-14T02:27:10;18.42;;;10.25;;
14876;SDS011;69691;48.172;17.070;2023-05-14T02:29:37;15.82;;;9.98;;
14876;SDS011;69691;48.172;17.070;2023-05-14T02:32:03;13.20;;;9.73;;
14876;SDS011;69691;48.172;17.070;2023-05-14T02:34:29;10.30;;;8.82;;
14876;SDS011;69691;48.172;17.070;2023-05-14T02:36:57;16.05;;;10.13;;
14876;SDS011;69691;48.172;17.070;2023-05-14T02:39:23;10.82;;;9.73;;
14876;SDS011;69691;48.172;17.070;2023-05-14T02:41:49;12.82;;;9.07;;
14876;SDS011;69691;48.172;17.070;2023-05-14T02:44:15;21.42;;;10.52;;
14876;SDS011;69691;48.172;17.070;2023-05-14T02:46:41;12.43;;;10.07;;
14876;SDS011;69691;48.172;17.070;2023-05-14T02:49:07;11.25;;;10.18;;
14876;SDS011;69691;48.172;17.070;2023-05-14T02:51:33;14.38;;;9.93;;
14876;SDS011;69691;48.172;17.070;2023-05-14T02:53:59;10.73;;;9.63;;
14876;SDS011;69691;48.172;17.070;2023-05-14T02:56:25;15.25;;;9.52;;
14876;SDS011;69691;48.172;17.070;2023-05-14T02:58:51;13.90;;;10.15;;
14876;SDS011;69691;48.172;17.070;2023-05-14T03:01:17;10.82;;;9.32;;
14876;SDS011;69691;48.172;17.070;2023-05-14T03:03:43;10.68;;;9.57;;
14876;SDS011;69691;48.172;17.070;2023-05-14T03:06:09;11.70;;;9.45;;
14876;SDS011;69691;48.172;17.070;2023-05-14T03:08:35;15.20;;;9.48;;
14876;SDS011;69691;48.172;17.070;2023-05-14T03:11:01;12.07;;;9.32;;
14876;SDS011;69691;48.172;17.070;2023-05-14T03:13:27;11.63;;;9.95;;
14876;SDS011;69691;48.172;17.070;2023-05-14T03:15:53;11.38;;;9.50;;
14876;SDS011;69691;48.172;17.070;2023-05-14T03:18:19;14.13;;;9.05;;
14876;SDS011;69691;48.172;17.070;2023-05-14T03:20:45;14.60;;;9.07;;
14876;SDS011;69691;48.172;17.070;2023-05-14T03:23:11;13.43;;;8.82;;
14876;SDS011;69691;48.172;17.070;2023-05-14T03:25:39;9.07;;;8.27;;
14876;SDS011;69691;48.172;17.070;2023-05-14T03:28:05;10.60;;;8.35;;
14876;SDS011;69691;48.172;17.070;2023-05-14T03:30:31;16.17;;;9.15;;
14876;SDS011;69691;48.172;17.070;2023-05-14T03:32:57;10.60;;;8.50;;
14876;SDS011;69691;48.172;17.070;2023-05-14T03:35:23;12.00;;;8.85;;
14876;SDS011;69691;48.172;17.070;2023-05-14T03:37:50;10.18;;;8.35;;
14876;SDS011;69691;48.172;17.070;2023-05-14T03:40:17;12.80;;;8.50;;
14876;SDS011;69691;48.172;17.070;2023-05-14T03:42:43;9.68;;;8.40;;
14876;SDS011;69691;48.172;17.070;2023-05-14T03:45:09;9.60;;;8.63;;
14876;SDS011;69691;48.172;17.070;2023-05-14T03:47:35;10.82;;;8.38;;
14876;SDS011;69691;48.172;17.070;2023-05-14T03:50:01;12.30;;;8.40;;
14876;SDS011;69691;48.172;17.070;2023-05-14T03:52:27;9.73;;;8.35;;
14876;SDS011;69691;48.172;17.070;2023-05-14T03:54:55;10.13;;;7.65;;
14876;SDS011;69691;48.172;17.070;2023-05-14T03:57:21;9.05;;;7.85;;
14876;SDS011;69691;48.172;17.070;2023-05-14T03:59:47;9.25;;;8.35;;
14876;SDS011;69691;48.172;17.070;2023-05-14T04:02:13;13.25;;;7.57;;
14876;SDS011;69691;48.172;17.070;2023-05-14T04:04:38;10.38;;;7.38;;
14876;SDS011;69691;48.172;17.070;2023-05-14T04:07:05;9.77;;;7.63;;
14876;SDS011;69691;48.172;17.070;2023-05-14T04:09:30;8.75;;;7.30;;
14876;SDS011;69691;48.172;17.070;2023-05-14T04:11:56;15.48;;;7.10;;
14876;SDS011;69691;48.172;17.070;2023-05-14T04:14:23;7.93;;;6.90;;
14876;SDS011;69691;48.172;17.070;2023-05-14T04:16:49;11.00;;;7.15;;
14876;SDS011;69691;48.172;17.070;2023-05-14T04:19:15;13.85;;;7.43;;
14876;SDS011;69691;48.172;17.070;2023-05-14T04:21:41;9.00;;;7.05;;
14876;SDS011;69691;48.172;17.070;2023-05-14T04:24:06;9.05;;;7.10;;
14876;SDS011;69691;48.172;17.070;2023-05-14T04:26:32;7.75;;;6.55;;
14876;SDS011;69691;48.172;17.070;2023-05-14T04:28:59;8.40;;;6.72;;
14876;SDS011;69691;48.172;17.070;2023-05-14T04:31:27;12.93;;;6.93;;
14876;SDS011;69691;48.172;17.070;2023-05-14T04:33:54;7.30;;;6.60;;
14876;SDS011;69691;48.172;17.070;2023-05-14T04:36:19;10.25;;;6.55;;
14876;SDS011;69691;48.172;17.070;2023-05-14T04:38:45;11.65;;;7.25;;
14876;SDS011;69691;48.172;17.070;2023-05-14T04:41:11;11.00;;;6.78;;
14876;SDS011;69691;48.172;17.070;2023-05-14T04:43:38;7.72;;;6.80;;
14876;SDS011;69691;48.172;17.070;2023-05-14T04:46:04;9.32;;;5.88;;
14876;SDS011;69691;48.172;17.070;2023-05-14T04:48:30;9.25;;;6.47;;
14876;SDS011;69691;48.172;17.070;2023-05-14T04:50:56;8.80;;;6.22;;
14876;SDS011;69691;48.172;17.070;2023-05-14T04:53:22;9.90;;;6.68;;
14876;SDS011;69691;48.172;17.070;2023-05-14T04:55:48;6.47;;;5.85;;
14876;SDS011;69691;48.172;17.070;2023-05-14T04:58:14;7.25;;;6.53;;
14876;SDS011;69691;48.172;17.070;2023-05-14T05:00:40;8.15;;;7.35;;
14876;SDS011;69691;48.172;17.070;2023-05-14T05:03:05;7.10;;;6.20;;
14876;SDS011;69691;48.172;17.070;2023-05-14T05:05:31;8.23;;;6.93;;
14876;SDS011;69691;48.172;17.070;2023-05-14T05:07:57;8.15;;;6.97;;
14876;SDS011;69691;48.172;17.070;2023-05-14T05:10:23;8.50;;;6.93;;
14876;SDS011;69691;48.172;17.070;2023-05-14T05:12:49;10.65;;;7.47;;
14876;SDS011;69691;48.172;17.070;2023-05-14T05:15:15;8.40;;;7.57;;
14876;SDS011;69691;48.172;17.070;2023-05-14T05:17:41;13.52;;;8.40;;
14876;SDS011;69691;48.172;17.070;2023-05-14T05:20:07;10.50;;;8.23;;
14876;SDS011;69691;48.172;17.070;2023-05-14T05:22:34;10.25;;;7.47;;
14876;SDS011;69691;48.172;17.070;2023-05-14T05:25:01;10.48;;;8.63;;
14876;SDS011;69691;48.172;17.070;2023-05-14T05:27:30;9.77;;;7.50;;
14876;SDS011;69691;48.172;17.070;2023-05-14T05:29:57;10.05;;;7.50;;
14876;SDS011;69691;48.172;17.070;2023-05-14T05:32:25;11.50;;;7.75;;
14876;SDS011;69691;48.172;17.070;2023-05-14T05:34:51;9.18;;;7.72;;
14876;SDS011;69691;48.172;17.070;2023-05-14T05:37:17;10.20;;;8.40;;
14876;SDS011;69691;48.172;17.070;2023-05-14T05:39:43;10.05;;;8.25;;
14876;SDS011;69691;48.172;17.070;2023-05-14T05:42:09;9.48;;;7.40;;
14876;SDS011;69691;48.172;17.070;2023-05-14T05:44:35;9.73;;;8.70;;
14876;SDS011;69691;48.172;17.070;2023-05-14T05:47:01;9.45;;;8.52;;
14876;SDS011;69691;48.172;17.070;2023-05-14T05:49:27;9.95;;;8.05;;
14876;SDS011;69691;48.172;17.070;2023-05-14T05:51:52;11.73;;;7.85;;
14876;SDS011;69691;48.172;17.070;2023-05-14T05:54:18;8.52;;;7.60;;
14876;SDS011;69691;48.172;17.070;2023-05-14T05:56:44;10.45;;;9.45;;
14876;SDS011;69691;48.172;17.070;2023-05-14T05:59:10;8.77;;;7.88;;
14876;SDS011;69691;48.172;17.070;2023-05-14T06:01:36;9.38;;;8.20;;
14876;SDS011;69691;48.172;17.070;2023-05-14T06:04:02;8.77;;;7.97;;
14876;SDS011;69691;48.172;17.070;2023-05-14T06:06:30;9.40;;;8.50;;
14876;SDS011;69691;48.172;17.070;2023-05-14T06:08:57;9.27;;;8.38;;
14876;SDS011;69691;48.172;17.070;2023-05-14T06:11:23;12.05;;;8.52;;
14876;SDS011;69691;48.172;17.070;2023-05-14T06:13:48;12.38;;;9.13;;
14876;SDS011;69691;48.172;17.070;2023-05-14T06:16:14;9.85;;;8.70;;
14876;SDS011;69691;48.172;17.070;2023-05-14T06:18:40;11.35;;;9.40;;
14876;SDS011;69691;48.172;17.070;2023-05-14T06:21:06;11.20;;;8.95;;
14876;SDS011;69691;48.172;17.070;2023-05-14T06:23:32;10.77;;;9.75;;
14876;SDS011;69691;48.172;17.070;2023-05-14T06:25:57;9.38;;;8.48;;
14876;SDS011;69691;48.172;17.070;2023-05-14T06:28:23;10.55;;;9.52;;
14876;SDS011;69691;48.172;17.070;2023-05-14T06:30:49;10.45;;;9.45;;
14876;SDS011;69691;48.172;17.070;2023-05-14T06:33:15;10.15;;;9.23;;
14876;SDS011;69691;48.172;17.070;2023-05-14T06:35:41;13.77;;;9.90;;
14876;SDS011;69691;48.172;17.070;2023-05-14T06:38:07;11.65;;;10.52;;
14876;SDS011;69691;48.172;17.070;2023-05-14T06:40:32;10.63;;;9.52;;
14876;SDS011;69691;48.172;17.070;2023-05-14T06:42:58;15.43;;;10.65;;
14876;SDS011;69691;48.172;17.070;2023-05-14T06:45:24;11.10;;;9.75;;
14876;SDS011;69691;48.172;17.070;2023-05-14T06:47:50;9.45;;;8.35;;
14876;SDS011;69691;48.172;17.070;2023-05-14T06:50:15;9.40;;;8.50;;
14876;SDS011;69691;48.172;17.070;2023-05-14T06:52:41;10.20;;;8.07;;
14876;SDS011;69691;48.172;17.070;2023-05-14T06:55:09;10.45;;;9.10;;
14876;SDS011;69691;48.172;17.070;2023-05-14T06:57:34;10.02;;;9.13;;
14876;SDS011;69691;48.172;17.070;2023-05-14T07:00:00;11.40;;;9.13;;
14876;SDS011;69691;48.172;17.070;2023-05-14T07:02:26;10.98;;;8.43;;
14876;SDS011;69691;48.172;17.070;2023-05-14T07:04:52;11.15;;;8.75;;
14876;SDS011;69691;48.172;17.070;2023-05-14T07:07:17;12.85;;;8.52;;
14876;SDS011;69691;48.172;17.070;2023-05-14T07:09:45;9.57;;;8.55;;
14876;SDS011;69691;48.172;17.070;2023-05-14T07:12:11;13.45;;;8.10;;
14876;SDS011;69691;48.172;17.070;2023-05-14T07:14:37;8.23;;;7.43;;
14876;SDS011;69691;48.172;17.070;2023-05-14T07:17:03;9.10;;;8.07;;
14876;SDS011;69691;48.172;17.070;2023-05-14T07:19:29;11.48;;;7.70;;
14876;SDS011;69691;48.172;17.070;2023-05-14T07:21:55;8.20;;;7.13;;
14876;SDS011;69691;48.172;17.070;2023-05-14T07:24:22;12.27;;;8.32;;
14876;SDS011;69691;48.172;17.070;2023-05-14T07:26:48;8.93;;;7.43;;
14876;SDS011;69691;48.172;17.070;2023-05-14T07:29:14;11.30;;;8.27;;
14876;SDS011;69691;48.172;17.070;2023-05-14T07:31:40;9.35;;;7.40;;
14876;SDS011;69691;48.172;17.070;2023-05-14T07:34:05;8.00;;;7.18;;
14876;SDS011;69691;48.172;17.070;2023-05-14T07:36:32;11.07;;;7.45;;
14876;SDS011;69691;48.172;17.070;2023-05-14T07:38:58;15.23;;;7.57;;
14876;SDS011;69691;48.172;17.070;2023-05-14T07:41:24;8.93;;;7.95;;
14876;SDS011;69691;48.172;17.070;2023-05-14T07:43:50;13.05;;;8.18;;
14876;SDS011;69691;48.172;17.070;2023-05-14T07:46:16;10.23;;;9.27;;
14876;SDS011;69691;48.172;17.070;2023-05-14T07:48:42;14.02;;;11.07;;
14876;SDS011;69691;48.172;17.070;2023-05-14T07:51:07;16.08;;;10.32;;
14876;SDS011;69691;48.172;17.070;2023-05-14T07:53:33;12.15;;;10.50;;
14876;SDS011;69691;48.172;17.070;2023-05-14T07:55:59;13.23;;;11.25;;
14876;SDS011;69691;48.172;17.070;2023-05-14T07:58:25;13.00;;;10.20;;
14876;SDS011;69691;48.172;17.070;2023-05-14T08:00:52;12.27;;;10.98;;
14876;SDS011;69691;48.172;17.070;2023-05-14T08:03:18;12.07;;;10.30;;
14876;SDS011;69691;48.172;17.070;2023-05-14T08:05:43;12.77;;;10.15;;
14876;SDS011;69691;48.172;17.070;2023-05-14T08:08:09;11.13;;;9.18;;
14876;SDS011;69691;48.172;17.070;2023-05-14T08:10:36;9.98;;;8.95;;
14876;SDS011;69691;48.172;17.070;2023-05-14T08:13:02;10.98;;;9.35;;
14876;SDS011;69691;48.172;17.070;2023-05-14T08:15:28;10.60;;;9.48;;
14876;SDS011;69691;48.172;17.070;2023-05-14T08:17:54;10.48;;;9.48;;
14876;SDS011;69691;48.172;17.070;2023-05-14T08:20:20;11.30;;;10.18;;
14876;SDS011;69691;48.172;17.070;2023-05-14T08:22:46;9.85;;;8.82;;
14876;SDS011;69691;48.172;17.070;2023-05-14T08:25:12;10.40;;;9.40;;
14876;SDS011;69691;48.172;17.070;2023-05-14T08:27:38;10.73;;;9.63;;
14876;SDS011;69691;48.172;17.070;2023-05-14T08:30:04;10.38;;;9.30;;
14876;SDS011;69691;48.172;17.070;2023-05-14T08:32:31;11.25;;;9.82;;
14876;SDS011;69691;48.172;17.070;2023-05-14T08:34:57;11.60;;;9.90;;
14876;SDS011;69691;48.172;17.070;2023-05-14T08:37:23;10.25;;;9.20;;
14876;SDS011;69691;48.172;17.070;2023-05-14T08:39:49;10.98;;;9.50;;
14876;SDS011;69691;48.172;17.070;2023-05-14T08:42:15;11.27;;;10.05;;
14876;SDS011;69691;48.172;17.070;2023-05-14T08:44:52;11.15;;;10.05;;
14876;SDS011;69691;48.172;17.070;2023-05-14T08:47:24;11.40;;;9.80;;
14876;SDS011;69691;48.172;17.070;2023-05-14T08:49:56;11.38;;;9.95;;
14876;SDS011;69691;48.172;17.070;2023-05-14T08:52:29;10.88;;;9.65;;
14876;SDS011;69691;48.172;17.070;2023-05-14T08:54:56;10.77;;;9.75;;
14876;SDS011;69691;48.172;17.070;2023-05-14T08:57:25;12.73;;;8.88;;
14876;SDS011;69691;48.172;17.070;2023-05-14T08:59:52;10.18;;;9.18;;
14876;SDS011;69691;48.172;17.070;2023-05-14T09:02:22;12.43;;;8.70;;
14876;SDS011;69691;48.172;17.070;2023-05-14T09:04:57;11.93;;;9.10;;
14876;SDS011;69691;48.172;17.070;2023-05-14T09:07:24;12.93;;;9.52;;
14876;SDS011;69691;48.172;17.070;2023-05-14T09:09:51;10.60;;;8.50;;
14876;SDS011;69691;48.172;17.070;2023-05-14T09:12:17;10.25;;;8.52;;
14876;SDS011;69691;48.172;17.070;2023-05-14T09:14:43;9.73;;;8.85;;
14876;SDS011;69691;48.172;17.070;2023-05-14T09:17:11;10.48;;;9.00;;
14876;SDS011;69691;48.172;17.070;2023-05-14T09:19:40;10.45;;;8.88;;
14876;SDS011;69691;48.172;17.070;2023-05-14T09:22:08;10.35;;;9.00;;
14876;SDS011;69691;48.172;17.070;2023-05-14T09:24:37;9.63;;;8.82;;
14876;SDS011;69691;48.172;17.070;2023-05-14T09:27:03;14.10;;;9.75;;
14876;SDS011;69691;48.172;17.070;2023-05-14T09:29:30;13.75;;;9.18;;
14876;SDS011;69691;48.172;17.070;2023-05-14T09:31:57;11.85;;;9.00;;
14876;SDS011;69691;48.172;17.070;2023-05-14T09:34:25;9.50;;;8.60;;
14876;SDS011;69691;48.172;17.070;2023-05-14T09:36:59;11.23;;;8.98;;
14876;SDS011;69691;48.172;17.070;2023-05-14T09:39:28;12.57;;;8.52;;
14876;SDS011;69691;48.172;17.070;2023-05-14T09:41:55;10.40;;;9.32;;
14876;SDS011;69691;48.172;17.070;2023-05-14T09:44:21;12.32;;;10.63;;
14876;SDS011;69691;48.172;17.070;2023-05-14T09:46:49;10.77;;;9.68;;
14876;SDS011;69691;48.172;17.070;2023-05-14T09:49:16;13.88;;;9.88;;
14876;SDS011;69691;48.172;17.070;2023-05-14T09:51:41;12.15;;;10.27;;
14876;SDS011;69691;48.172;17.070;2023-05-14T09:54:07;11.48;;;10.35;;
14876;SDS011;69691;48.172;17.070;2023-05-14T09:56:34;12.40;;;9.88;;
14876;SDS011;69691;48.172;17.070;2023-05-14T09:59:01;11.80;;;9.65;;
14876;SDS011;69691;48.172;17.070;2023-05-14T10:01:28;11.88;;;10.68;;
14876;SDS011;69691;48.172;17.070;2023-05-14T10:03:55;12.73;;;10.35;;
14876;SDS011;69691;48.172;17.070;2023-05-14T10:06:24;10.20;;;9.02;;
14876;SDS011;69691;48.172;17.070;2023-05-14T10:08:56;12.20;;;10.85;;
14876;SDS011;69691;48.172;17.070;2023-05-14T10:11:30;10.43;;;9.43;;
14876;SDS011;69691;48.172;17.070;2023-05-14T10:14:10;11.75;;;10.75;;
14876;SDS011;69691;48.172;17.070;2023-05-14T10:16:47;11.25;;;10.02;;
14876;SDS011;69691;48.172;17.070;2023-05-14T10:19:16;14.15;;;10.68;;
14876;SDS011;69691;48.172;17.070;2023-05-14T10:21:46;10.75;;;9.50;;
14876;SDS011;69691;48.172;17.070;2023-05-14T10:24:17;11.02;;;9.73;;
14876;SDS011;69691;48.172;17.070;2023-05-14T10:26:44;10.32;;;9.32;;
14876;SDS011;69691;48.172;17.070;2023-05-14T10:29:11;12.50;;;10.90;;
14876;SDS011;69691;48.172;17.070;2023-05-14T10:31:47;11.32;;;9.93;;
14876;SDS011;69691;48.172;17.070;2023-05-14T10:37:08;12.20;;;11.00;;
14876;SDS011;69691;48.172;17.070;2023-05-14T10:39:39;12.27;;;10.98;;
14876;SDS011;69691;48.172;17.070;2023-05-14T10:42:21;15.68;;;11.50;;
14876;SDS011;69691;48.172;17.070;2023-05-14T10:45:00;13.07;;;11.85;;
14876;SDS011;69691;48.172;17.070;2023-05-14T10:47:31;12.50;;;11.20;;
14876;SDS011;69691;48.172;17.070;2023-05-14T10:49:58;13.95;;;12.65;;
14876;SDS011;69691;48.172;17.070;2023-05-14T10:52:28;15.15;;;12.43;;
14876;SDS011;69691;48.172;17.070;2023-05-14T10:54:56;15.25;;;11.75;;
14876;SDS011;69691;48.172;17.070;2023-05-14T10:57:24;11.02;;;9.80;;
14876;SDS011;69691;48.172;17.070;2023-05-14T10:59:54;11.75;;;10.60;;
14876;SDS011;69691;48.172;17.070;2023-05-14T11:05:02;10.13;;;9.15;;
14876;SDS011;69691;48.172;17.070;2023-05-14T11:07:34;15.95;;;10.98;;
14876;SDS011;69691;48.172;17.070;2023-05-14T11:10:04;12.68;;;10.57;;
14876;SDS011;69691;48.172;17.070;2023-05-14T11:12:39;12.52;;;10.57;;
14876;SDS011;69691;48.172;17.070;2023-05-14T11:15:13;12.48;;;10.65;;
14876;SDS011;69691;48.172;17.070;2023-05-14T11:17:49;12.68;;;10.18;;
14876;SDS011;69691;48.172;17.070;2023-05-14T11:20:16;10.93;;;9.60;;
14876;SDS011;69691;48.172;17.070;2023-05-14T11:22:43;12.93;;;10.93;;
14876;SDS011;69691;48.172;17.070;2023-05-14T11:25:12;15.27;;;11.38;;
14876;SDS011;69691;48.172;17.070;2023-05-14T11:27:40;11.80;;;9.85;;
14876;SDS011;69691;48.172;17.070;2023-05-14T11:30:11;15.38;;;10.90;;
14876;SDS011;69691;48.172;17.070;2023-05-14T11:32:39;11.45;;;10.13;;
14876;SDS011;69691;48.172;17.070;2023-05-14T11:35:05;10.85;;;9.73;;
14876;SDS011;69691;48.172;17.070;2023-05-14T11:37:31;10.75;;;9.65;;
14876;SDS011;69691;48.172;17.070;2023-05-14T11:39:58;12.52;;;9.35;;
14876;SDS011;69691;48.172;17.070;2023-05-14T11:42:25;14.27;;;11.90;;
14876;SDS011;69691;48.172;17.070;2023-05-14T11:44:52;10.82;;;9.80;;
14876;SDS011;69691;48.172;17.070;2023-05-14T11:47:18;12.10;;;10.85;;
14876;SDS011;69691;48.172;17.070;2023-05-14T11:49:46;13.88;;;11.98;;
14876;SDS011;69691;48.172;17.070;2023-05-14T11:52:13;15.20;;;12.35;;
14876;SDS011;69691;48.172;17.070;2023-05-14T11:54:43;13.40;;;10.85;;
14876;SDS011;69691;48.172;17.070;2023-05-14T11:57:10;13.45;;;10.30;;
14876;SDS011;69691;48.172;17.070;2023-05-14T11:59:42;11.73;;;10.63;;
14876;SDS011;69691;48.172;17.070;2023-05-14T12:02:12;11.57;;;10.25;;
14876;SDS011;69691;48.172;17.070;2023-05-14T12:04:40;11.63;;;10.43;;
14876;SDS011;69691;48.172;17.070;2023-05-14T12:07:11;11.23;;;9.88;;
14876;SDS011;69691;48.172;17.070;2023-05-14T12:09:40;13.27;;;10.57;;
14876;SDS011;69691;48.172;17.070;2023-05-14T12:12:17;13.73;;;11.10;;
14876;SDS011;69691;48.172;17.070;2023-05-14T12:14:46;11.65;;;9.10;;
14876;SDS011;69691;48.172;17.070;2023-05-14T12:17:14;13.57;;;10.65;;
14876;SDS011;69691;48.172;17.070;2023-05-14T12:19:43;10.57;;;9.57;;
14876;SDS011;69691;48.172;17.070;2023-05-14T12:22:11;10.90;;;9.20;;
14876;SDS011;69691;48.172;17.070;2023-05-14T12:24:40;14.73;;;9.32;;
14876;SDS011;69691;48.172;17.070;2023-05-14T12:27:08;10.52;;;9.48;;
14876;SDS011;69691;48.172;17.070;2023-05-14T12:29:37;10.95;;;9.80;;
14876;SDS011;69691;48.172;17.070;2023-05-14T12:32:06;10.63;;;9.52;;
14876;SDS011;69691;48.172;17.070;2023-05-14T12:34:34;17.58;;;10.82;;
14876;SDS011;69691;48.172;17.070;2023-05-14T12:37:01;11.93;;;10.32;;
14876;SDS011;69691;48.172;17.070;2023-05-14T12:39:27;11.80;;;9.85;;
14876;SDS011;69691;48.172;17.070;2023-05-14T12:41:54;10.75;;;9.73;;
14876;SDS011;69691;48.172;17.070;2023-05-14T12:44:20;11.88;;;10.68;;
14876;SDS011;69691;48.172;17.070;2023-05-14T12:46:46;14.07;;;9.60;;
14876;SDS011;69691;48.172;17.070;2023-05-14T12:49:12;10.93;;;9.82;;
14876;SDS011;69691;48.172;17.070;2023-05-14T12:51:38;9.55;;;8.73;;
14876;SDS011;69691;48.172;17.070;2023-05-14T12:54:04;9.40;;;8.18;;
14876;SDS011;69691;48.172;17.070;2023-05-14T12:56:29;10.20;;;8.68;;
14876;SDS011;69691;48.172;17.070;2023-05-14T12:58:56;10.25;;;9.20;;
14876;SDS011;69691;48.172;17.070;2023-05-14T13:01:22;11.73;;;8.30;;
14876;SDS011;69691;48.172;17.070;2023-05-14T13:03:48;8.40;;;7.60;;
14876;SDS011;69691;48.172;17.070;2023-05-14T13:06:15;8.65;;;7.85;;
14876;SDS011;69691;48.172;17.070;2023-05-14T13:08:40;8.20;;;7.35;;
14876;SDS011;69691;48.172;17.070;2023-05-14T13:11:06;8.50;;;7.70;;
14876;SDS011;69691;48.172;17.070;2023-05-14T13:13:32;11.52;;;7.97;;
14876;SDS011;69691;48.172;17.070;2023-05-14T13:15:58;12.05;;;8.50;;
14876;SDS011;69691;48.172;17.070;2023-05-14T13:18:25;9.40;;;8.20;;
14876;SDS011;69691;48.172;17.070;2023-05-14T13:20:51;9.85;;;7.90;;
14876;SDS011;69691;48.172;17.070;2023-05-14T13:23:18;9.48;;;8.48;;
14876;SDS011;69691;48.172;17.070;2023-05-14T13:25:44;8.80;;;8.00;;
14876;SDS011;69691;48.172;17.070;2023-05-14T13:28:09;10.57;;;8.55;;
14876;SDS011;69691;48.172;17.070;2023-05-14T13:30:35;9.52;;;8.15;;
14876;SDS011;69691;48.172;17.070;2023-05-14T13:33:02;9.15;;;8.25;;
14876;SDS011;69691;48.172;17.070;2023-05-14T13:35:28;11.60;;;8.18;;
14876;SDS011;69691;48.172;17.070;2023-05-14T13:37:54;9.55;;;8.45;;
14876;SDS011;69691;48.172;17.070;2023-05-14T13:40:20;12.63;;;8.57;;
14876;SDS011;69691;48.172;17.070;2023-05-14T13:42:46;14.98;;;8.70;;
14876;SDS011;69691;48.172;17.070;2023-05-14T13:45:11;10.20;;;8.48;;
14876;SDS011;69691;48.172;17.070;2023-05-14T13:47:37;10.20;;;8.07;;
14876;SDS011;69691;48.172;17.070;2023-05-14T13:50:03;10.52;;;8.95;;
14876;SDS011;69691;48.172;17.070;2023-05-14T13:52:30;13.23;;;8.52;;
14876;SDS011;69691;48.172;17.070;2023-05-14T13:54:56;10.73;;;8.85;;
14876;SDS011;69691;48.172;17.070;2023-05-14T13:57:21;10.38;;;8.48;;
14876;SDS011;69691;48.172;17.070;2023-05-14T13:59:47;13.27;;;8.18;;
14876;SDS011;69691;48.172;17.070;2023-05-14T14:02:13;8.35;;;7.53;;
14876;SDS011;69691;48.172;17.070;2023-05-14T14:04:39;16.67;;;10.07;;
14876;SDS011;69691;48.172;17.070;2023-05-14T14:07:05;13.05;;;11.57;;
14876;SDS011;69691;48.172;17.070;2023-05-14T14:09:31;13.07;;;11.77;;
14876;SDS011;69691;48.172;17.070;2023-05-14T14:12:03;13.80;;;12.30;;
14876;SDS011;69691;48.172;17.070;2023-05-14T14:14:29;14.02;;;12.73;;
14876;SDS011;69691;48.172;17.070;2023-05-14T14:16:55;12.95;;;11.75;;
14876;SDS011;69691;48.172;17.070;2023-05-14T14:19:21;12.45;;;11.15;;
14876;SDS011;69691;48.172;17.070;2023-05-14T14:21:47;14.13;;;12.75;;
14876;SDS011;69691;48.172;17.070;2023-05-14T14:24:13;12.18;;;10.98;;
14876;SDS011;69691;48.172;17.070;2023-05-14T14:26:39;12.48;;;9.98;;
14876;SDS011;69691;48.172;17.070;2023-05-14T14:29:05;11.85;;;9.80;;
14876;SDS011;69691;48.172;17.070;2023-05-14T14:31:30;15.32;;;10.98;;